Time;durP1;ratioP1;P1;durP2;ratioP2;P2;SDS_P1;SDS_P2;PMS_P1;PMS_P2;Temp;Humidity;BMP_temperature;BMP_pressure;BME280_temperature;BME280_humidity;BME280_pressure;Samples;Min_cycle;Max_cycle;Signal;HPM_P1;HPM_P2
2024/03/14 00:00:05;;;;;;;5.72;2.67;;;;;;;;;;5049525;28;20036;-86
2024/03/14 00:02:31;;;;;;;4.10;1.65;;;;;;;;;;5034405;28;20037;-86
2024/03/14 00:04:58;;;;;;;1.98;1.60;;;;;;;;;;5025041;28;20029;-86
2024/03/14 00:07:24;;;;;;;3.08;1.45;;;;;;;;;;5024003;28;20029;-86
2024/03/14 00:09:50;;;;;;;6.25;2.30;;;;;;;;;;5030033;28;20034;-86
2024/03/14 00:12:16;;;;;;;3.63;2.03;;;;;;;;;;5029469;28;20076;-86
2024/03/14 00:14:50;;;;;;;1.50;1.40;;;6.00;99.90;;;;;;5029578;28;20515;-87
2024/03/14 00:17:19;;;;;;;2.35;1.40;;;;;;;;;;5029305;28;20112;-86
2024/03/14 00:19:46;;;;;;;2.65;1.70;;;5.90;99.90;;;;;;5028734;28;20585;-86
2024/03/14 00:22:13;;;;;;;4.38;3.33;;;6.00;99.90;;;;;;5031460;28;20017;-86
2024/03/14 00:24:41;;;;;;;17.95;2.65;;;;;;;;;;5029641;28;20029;-86
2024/03/14 00:27:07;;;;;;;8.65;2.65;;;;;;;;;;5029639;28;20014;-86
2024/03/14 00:29:34;;;;;;;3.33;2.13;;;;;;;;;;5029454;28;20111;-86
2024/03/14 00:32:03;;;;;;;3.15;1.50;;;6.10;99.90;;;;;;5029959;28;20116;-86
2024/03/14 00:34:29;;;;;;;2.50;1.65;;;;;;;;;;5029310;28;20030;-86
2024/03/14 00:36:56;;;;;;;1.98;1.25;;;5.90;99.90;;;;;;5029320;28;20026;-86
2024/03/14 00:39:22;;;;;;;5.10;2.38;;;;;;;;;;5029495;28;20053;-86
2024/03/14 00:41:52;;;;;;;5.25;2.42;;;;;;;;;;5027139;28;20064;-86
2024/03/14 00:44:18;;;;;;;3.30;2.25;;;;;;;;;;5024966;28;20036;-86
2024/03/14 00:46:44;;;;;;;3.42;2.92;;;;;;;;;;5033620;28;20036;-86
2024/03/14 00:49:10;;;;;;;5.15;2.72;;;;;;;;;;5032867;28;20028;-86
2024/03/14 00:51:36;;;;;;;4.03;1.88;;;;;;;;;;5033379;28;20029;-86
2024/03/14 00:54:04;;;;;;;5.00;3.55;;;;;;;;;;5032903;28;20554;-86
2024/03/14 00:56:30;;;;;;;2.13;1.20;;;;;;;;;;5032743;28;20492;-85
2024/03/14 00:58:56;;;;;;;3.63;1.52;;;;;;;;;;5026064;28;20040;-86
2024/03/14 01:01:24;;;;;;;6.18;1.90;;;;;;;;;;5028623;28;20050;-86
2024/03/14 01:03:51;;;;;;;3.70;1.30;;;;;;;;;;5028577;28;20511;-86
2024/03/14 01:06:17;;;;;;;1.48;1.30;;;;;;;;;;5032845;28;20014;-86
2024/03/14 01:08:43;;;;;;;1.27;1.00;;;;;;;;;;5033200;28;20033;-86
2024/03/14 01:11:09;;;;;;;17.63;2.60;;;6.10;99.90;;;;;;5032997;28;20480;-86
2024/03/14 01:13:35;;;;;;;5.30;2.42;;;;;;;;;;5031317;28;20033;-86
2024/03/14 01:16:01;;;;;;;12.32;3.17;;;;;;;;;;5033532;28;20075;-86
2024/03/14 01:18:27;;;;;;;4.78;2.83;;;;;;;;;;5032813;28;20142;-86
2024/03/14 01:20:53;;;;;;;4.60;2.25;;;;;;;;;;5032873;28;20107;-86
2024/03/14 01:23:19;;;;;;;3.08;1.40;;;;;;;;;;5033669;28;20017;-87
2024/03/14 01:25:45;;;;;;;12.13;3.05;;;;;;;;;;5043064;28;20034;-86
2024/03/14 01:28:11;;;;;;;4.75;2.00;;;;;;;;;;5045116;28;20044;-85
2024/03/14 01:30:37;;;;;;;7.47;1.92;;;;;;;;;;5050624;28;20570;-86
2024/03/14 01:33:04;;;;;;;2.92;1.40;;;;;;;;;;5052680;28;20456;-86
2024/03/14 01:35:30;;;;;;;4.15;2.30;;;;;;;;;;5020072;28;20022;-87
2024/03/14 01:37:56;;;;;;;4.45;1.98;;;;;;;;;;5033141;28;20026;-87
2024/03/14 01:40:22;;;;;;;6.75;3.05;;;;;;;;;;5027775;28;20550;-87
2024/03/14 01:42:55;;;;;;;3.20;2.25;;;5.30;99.90;;;;;;5036592;28;20029;-85
2024/03/14 01:45:21;;;;;;;3.47;2.17;;;;;;;;;;5044031;28;20013;-85
2024/03/14 01:47:50;;;;;;;4.35;1.67;;;;;;;;;;5043692;28;20075;-84
2024/03/14 01:50:16;;;;;;;2.70;1.45;;;;;;;;;;5051858;28;20032;-85
2024/03/14 01:52:44;;;;;;;2.72;1.80;;;;;;;;;;5037533;28;20025;-87
2024/03/14 01:55:09;;;;;;;;;;;5.40;99.90;;;;;;5051014;28;20032;-87
2024/03/14 01:57:36;;;;;;;8.95;1.95;;;;;;;;;;5049693;28;19913;-86
2024/03/14 02:00:04;;;;;;;5.50;3.50;;;5.20;99.90;;;;;;5051389;28;20048;-85
2024/03/14 02:02:32;;;;;;;1.83;1.45;;;;;;;;;;5048279;28;20017;-85
2024/03/14 02:05:13;;;;;;;3.90;1.95;;;4.90;99.90;;;;;;5031536;28;20083;-86
2024/03/14 02:07:40;;;;;;;7.53;2.42;;;4.90;99.90;;;;;;5044687;28;20036;-85
2024/03/14 02:10:06;;;;;;;8.98;3.13;;;;;;;;;;5031519;28;20033;-86
2024/03/14 02:12:33;;;;;;;4.05;2.10;;;;;;;;;;5031184;28;20029;-86
2024/03/14 02:15:02;;;;;;;2.42;2.08;;;;;;;;;;5031733;28;20026;-86
2024/03/14 02:17:28;;;;;;;3.97;2.13;;;;;;;;;;5044113;28;20608;-86
2024/03/14 02:19:55;;;;;;;9.18;4.03;;;;;;;;;;5039517;28;20033;-85
2024/03/14 02:22:21;;;;;;;3.97;2.53;;;;;;;;;;5045418;28;20488;-85
2024/03/14 02:24:47;;;;;;;18.85;3.00;;;;;;;;;;5031249;28;20113;-86
2024/03/14 02:27:14;;;;;;;4.28;2.53;;;;;;;;;;5031457;28;20025;-85
2024/03/14 02:29:42;;;;;;;2.95;2.03;;;4.70;99.90;;;;;;5031545;28;20404;-86
2024/03/14 02:32:09;;;;;;;7.38;2.75;;;;;;;;;;5026414;28;20137;-86
2024/03/14 02:34:35;;;;;;;6.22;2.72;;;;;;;;;;5022488;28;20065;-85
2024/03/14 02:37:01;;;;;;;6.22;2.53;;;;;;;;;;5031805;28;20484;-86
2024/03/14 02:39:29;;;;;;;3.72;1.48;;;;;;;;;;5035469;28;20056;-85
2024/03/14 02:41:55;;;;;;;4.05;2.42;;;5.00;99.90;;;;;;5030883;28;20496;-86
2024/03/14 02:44:22;;;;;;;2.40;1.52;;;;;;;;;;5031810;28;20488;-85
2024/03/14 02:46:50;;;;;;;1.25;1.10;;;;;;;;;;5040141;28;20017;-85
2024/03/14 02:49:18;;;;;;;5.97;2.35;;;4.90;99.90;;;;;;5045641;28;20477;-86
2024/03/14 02:51:45;;;;;;;6.60;2.40;;;;;;;;;;5035083;28;20029;-85
2024/03/14 02:54:17;;;;;;;7.28;3.63;;;4.70;99.90;;;;;;5043332;28;20398;-85
2024/03/14 02:56:48;;;;;;;5.15;2.60;;;5.20;99.90;;;;;;5041700;28;20092;-86
2024/03/14 02:59:14;;;;;;;5.80;3.45;;;;;;;;;;5037158;28;20025;-85
2024/03/14 03:01:41;;;;;;;4.05;2.03;;;;;;;;;;5030696;28;20041;-86
2024/03/14 03:04:09;;;;;;;8.85;3.55;;;;;;;;;;5030236;28;20613;-85
2024/03/14 03:06:36;;;;;;;2.58;2.33;;;;;;;;;;5030362;28;20208;-85
2024/03/14 03:09:05;;;;;;;1.67;1.55;;;;;;;;;;5030339;28;20036;-86
2024/03/14 03:11:34;;;;;;;3.10;2.10;;;;;;;;;;5045128;28;20017;-85
2024/03/14 03:14:00;;;;;;;6.68;3.55;;;;;;;;;;5049908;28;20109;-85
2024/03/14 03:16:26;;;;;;;3.10;1.77;;;;;;;;;;5049861;28;20044;-85
2024/03/14 03:18:52;;;;;;;3.85;2.38;;;;;;;;;;5034692;28;20026;-86
2024/03/14 03:21:20;;;;;;;1.90;1.67;;;;;;;;;;5027840;28;20104;-86
2024/03/14 03:23:47;;;;;;;2.50;1.65;;;;;;;;;;5025569;28;20030;-85
2024/03/14 03:26:14;;;;;;;2.77;2.13;;;;;;;;;;5028485;28;20049;-85
2024/03/14 03:28:40;;;;;;;2.50;1.45;;;;;;;;;;5028895;28;20288;-86
2024/03/14 03:31:08;;;;;;;3.80;1.70;;;;;;;;;;5030167;28;20018;-84
2024/03/14 03:33:35;;;;;;;3.95;2.00;;;4.90;99.90;;;;;;5025700;28;20489;-86
2024/03/14 03:36:04;;;;;;;3.47;1.67;;;;;;;;;;5029279;28;20507;-86
2024/03/14 03:38:33;;;;;;;2.25;2.00;;;5.10;99.90;;;;;;5030070;28;20275;-86
2024/03/14 03:41:01;;;;;;;4.65;1.88;;;;;;;;;;5030418;28;20483;-83
2024/03/14 03:43:27;;;;;;;5.90;1.88;;;;;;;;;;5030909;28;20442;-86
2024/03/14 03:45:57;;;;;;;4.85;1.95;;;;;;;;;;5043061;28;20029;-86
2024/03/14 03:48:23;;;;;;;2.47;1.63;;;;;;;;;;5042034;28;20032;-85
2024/03/14 03:50:48;;;;;;;5.15;2.25;;;;;;;;;;5048574;28;20079;-85
2024/03/14 03:53:14;;;;;;;2.78;1.55;;;;;;;;;;5049721;28;20387;-85
2024/03/14 03:55:42;;;;;;;4.63;2.17;;;;;;;;;;5049070;28;20112;-86
2024/03/14 03:58:09;;;;;;;3.83;2.28;;;;;;;;;;5049257;28;20021;-85
2024/03/14 04:00:44;;;;;;;1.75;1.40;;;;;;;;;;5029815;28;20124;-83
2024/03/14 04:03:15;;;;;;;2.72;2.08;;;4.90;99.90;;;;;;5030238;28;20484;-86
2024/03/14 04:05:45;;;;;;;3.95;2.08;;;4.80;99.90;;;;;;5024795;28;20032;-85
2024/03/14 04:08:14;;;;;;;3.33;2.15;;;;;;;;;;5025777;28;20060;-85
2024/03/14 04:10:40;;;;;;;1.55;1.38;;;;;;;;;;5029455;28;20824;-85
2024/03/14 04:13:09;;;;;;;2.67;1.83;;;;;;;;;;5030431;28;20025;-85
2024/03/14 04:15:36;;;;;;;3.13;2.05;;;;;;;;;;5030692;28;20038;-86
2024/03/14 04:18:05;;;;;;;1.77;1.42;;;;;;;;;;5039741;28;20067;-85
2024/03/14 04:20:33;;;;;;;2.97;2.03;;;;;;;;;;5034371;28;20688;-85
2024/03/14 04:22:59;;;;;;;2.90;1.98;;;;;;;;;;5035431;28;20029;-85
2024/03/14 04:25:26;;;;;;;2.15;1.77;;;;;;;;;;5030524;28;20439;-85
2024/03/14 04:27:52;;;;;;;4.25;1.60;;;;;;;;;;5033072;28;20050;-85
2024/03/14 04:30:23;;;;;;;3.28;2.10;;;4.70;99.90;;;;;;5034986;28;20442;-85
2024/03/14 04:32:49;;;;;;;5.00;2.60;;;;;;;;;;5035552;28;20483;-84
2024/03/14 04:35:15;;;;;;;2.42;1.65;;;4.70;99.90;;;;;;5034606;28;20427;-84
2024/03/14 04:37:47;;;;;;;9.95;2.60;;;4.70;99.90;;;;;;5035822;28;20053;-86
2024/03/14 04:40:13;;;;;;;3.00;1.85;;;;;;;;;;5034575;28;20115;-85
2024/03/14 04:42:43;;;;;;;3.50;2.17;;;4.60;99.90;;;;;;5034814;28;20039;-86
2024/03/14 04:45:09;;;;;;;3.58;1.67;;;;;;;;;;5045578;28;20546;-86
2024/03/14 04:47:36;;;;;;;1.83;1.73;;;;;;;;;;5050908;28;20033;-86
2024/03/14 04:50:02;;;;;;;4.63;1.70;;;4.60;99.90;;;;;;5052271;28;20079;-85
2024/03/14 04:52:29;;;;;;;3.70;1.42;;;;;;;;;;5046218;28;20021;-85
2024/03/14 04:54:55;;;;;;;2.95;1.70;;;;;;;;;;5033437;28;20121;-86
2024/03/14 04:57:22;;;;;;;2.63;2.10;;;;;;;;;;5033335;28;20083;-85
2024/03/14 04:59:48;;;;;;;1.40;1.27;;;;;;;;;;5046102;28;20111;-85
2024/03/14 05:02:15;;;;;;;3.50;2.15;;;;;;;;;;5032803;28;20033;-86
2024/03/14 05:04:41;;;;;;;3.80;2.30;;;;;;;;;;5032709;28;20492;-85
2024/03/14 05:07:07;;;;;;;2.58;1.92;;;4.50;99.90;;;;;;5032644;28;20025;-85
2024/03/14 05:09:33;;;;;;;2.63;1.90;;;;;;;;;;5027491;28;20431;-85
2024/03/14 05:11:59;;;;;;;1.88;1.67;;;;;;;;;;5033646;28;20025;-85
2024/03/14 05:14:25;;;;;;;4.40;2.30;;;;;;;;;;5030245;28;20068;-86
2024/03/14 05:16:51;;;;;;;3.45;1.90;;;;;;;;;;5032362;28;20083;-85
2024/03/14 05:19:20;;;;;;;3.35;1.70;;;;;;;;;;5038300;28;20470;-86
2024/03/14 05:21:46;;;;;;;6.05;3.03;;;;;;;;;;5042739;28;20517;-85
2024/03/14 05:24:16;;;;;;;4.28;3.00;;;;;;;;;;5040565;28;20052;-86
2024/03/14 05:26:42;;;;;;;3.42;2.65;;;;;;;;;;5043092;28;20116;-85
2024/03/14 05:29:08;;;;;;;6.93;2.58;;;;;;;;;;5039843;28;20088;-86
2024/03/14 05:31:37;;;;;;;5.85;2.75;;;3.90;99.90;;;;;;5041294;28;20294;-85
2024/03/14 05:34:03;;;;;;;2.83;1.88;;;4.20;99.90;;;;;;5039889;28;20029;-84
2024/03/14 05:36:29;;;;;;;6.45;2.55;;;4.20;99.90;;;;;;5042026;28;20017;-85
2024/03/14 05:38:55;;;;;;;4.95;2.65;;;;;;;;;;5040415;28;20056;-85
2024/03/14 05:41:21;;;;;;;8.48;3.38;;;;;;;;;;5035594;28;20068;-85
2024/03/14 05:43:47;;;;;;;4.53;2.63;;;;;;;;;;5034449;28;20037;-85
2024/03/14 05:46:13;;;;;;;3.10;2.70;;;;;;;;;;5048238;28;20388;-86
2024/03/14 05:48:39;;;;;;;4.82;2.63;;;;;;;;;;5040793;28;20022;-85
2024/03/14 05:51:09;;;;;;;6.32;3.42;;;4.00;99.90;;;;;;5034605;28;20427;-85
2024/03/14 05:53:35;;;;;;;3.72;2.42;;;;;;;;;;5036224;28;20033;-86
2024/03/14 05:56:02;;;;;;;6.25;3.08;;;;;;;;;;5045973;28;20514;-84
2024/03/14 05:58:31;;;;;;;7.30;3.25;;;4.20;99.90;;;;;;5042852;28;20064;-86
2024/03/14 06:00:57;;;;;;;7.85;3.65;;;;;;;;;;5044247;28;20122;-85
2024/03/14 06:03:23;;;;;;;13.85;4.20;;;;;;;;;;5031408;28;20045;-85
2024/03/14 06:05:52;;;;;;;8.48;3.95;;;;;;;;;;5036962;28;20044;-84
2024/03/14 06:08:18;;;;;;;6.22;3.63;;;;;;;;;;5036563;28;20087;-85
2024/03/14 06:10:44;;;;;;;7.43;4.07;;;;;;;;;;5031169;28;20037;-84
2024/03/14 06:13:10;;;;;;;5.70;3.35;;;;;;;;;;5045534;28;20487;-85
2024/03/14 06:15:36;;;;;;;3.70;3.13;;;;;;;;;;5047736;28;20124;-85
2024/03/14 06:18:05;;;;;;;3.53;2.28;;;;;;;;;;5049894;28;20071;-85
2024/03/14 06:20:32;;;;;;;6.85;2.92;;;;;;;;;;5035508;28;20404;-85
2024/03/14 06:23:00;;;;;;;6.45;3.63;;;;;;;;;;5031114;28;20029;-83
2024/03/14 06:25:27;;;;;;;8.23;3.80;;;;;;;;;;5033524;28;20666;-85
2024/03/14 06:27:53;;;;;;;3.78;2.28;;;;;;;;;;5039002;28;20037;-85
2024/03/14 06:30:19;;;;;;;3.75;2.20;;;;;;;;;;5033847;28;20401;-84
2024/03/14 06:32:50;;;;;;;3.60;2.38;;;;;;;;;;5039040;28;20040;-85
2024/03/14 06:35:17;;;;;;;5.13;2.78;;;;;;;;;;5028707;28;20580;-85
2024/03/14 06:37:43;;;;;;;5.13;3.42;;;;;;;;;;5035414;28;20852;-84
2024/03/14 06:40:09;;;;;;;5.38;3.53;;;;;;;;;;5034599;28;20112;-85
2024/03/14 06:42:35;;;;;;;6.80;3.75;;;;;;;;;;5037737;28;20262;-85
2024/03/14 06:45:02;;;;;;;6.22;3.42;;;;;;;;;;5037275;28;20033;-84
2024/03/14 06:47:29;;;;;;;9.38;4.40;;;;;;;;;;5019082;28;20029;-85
2024/03/14 06:49:55;;;;;;;10.43;4.22;;;;;;;;;;5028610;28;20095;-84
2024/03/14 06:52:21;;;;;;;9.63;4.40;;;;;;;;;;5031312;28;20031;-79
2024/03/14 06:54:48;;;;;;;5.55;3.20;;;;;;;;;;5038541;28;20033;-83
2024/03/14 06:57:14;;;;;;;4.47;2.67;;;;;;;;;;5030627;28;20025;-79
2024/03/14 06:59:41;;;;;;;4.53;3.35;;;;;;;;;;5027535;28;20538;-79
2024/03/14 07:02:10;;;;;;;3.80;2.83;;;;;;;;;;5030256;28;20158;-79
2024/03/14 07:04:37;;;;;;;6.10;3.47;;;;;;;;;;5034053;28;20570;-80
2024/03/14 07:07:03;;;;;;;8.25;4.60;;;;;;;;;;5002443;28;21185;-82
2024/03/14 07:09:30;;;;;;;9.25;3.83;;;;;;;;;;5027294;28;20064;-79
2024/03/14 07:11:56;;;;;;;9.50;4.38;;;6.80;99.70;;;;;;5036675;28;20565;-79
2024/03/14 07:14:23;;;;;;;5.65;3.70;;;;;;;;;;5027234;28;20029;-80
2024/03/14 07:16:53;;;;;;;10.20;4.68;;;7.40;97.50;;;;;;5028291;28;20487;-79
2024/03/14 07:19:21;;;;;;;7.97;4.50;;;;;;;;;;5029400;28;20420;-79
2024/03/14 07:21:49;;;;;;;;;;;7.80;95.40;;;;;;5041464;28;20871;-79
2024/03/14 07:24:16;;;;;;;7.80;4.25;;;;;;;;;;5034589;28;19909;-78
2024/03/14 07:26:43;;;;;;;16.02;5.85;;;;;;;;;;5039857;28;20029;-80
2024/03/14 07:29:09;;;;;;;9.27;4.75;;;;;;;;;;5028446;28;20045;-82
2024/03/14 07:31:35;;;;;;;14.93;5.47;;;;;;;;;;5040104;28;20506;-78
2024/03/14 07:34:06;;;;;;;9.25;4.65;;;;;;;;;;5036411;28;20134;-77
2024/03/14 07:36:32;;;;;;;12.60;4.88;;;;;;;;;;5039532;28;20033;-79
2024/03/14 07:38:59;;;;;;;9.55;4.70;;;;;;;;;;5036728;28;20578;-78
2024/03/14 07:41:27;;;;;;;10.77;4.75;;;;;;;;;;5037583;28;20456;-81
2024/03/14 07:43:53;;;;;;;5.75;3.67;;;;;;;;;;5026682;28;20038;-79
2024/03/14 07:46:20;;;;;;;10.32;4.30;;;10.60;84.20;;;;;;5022413;28;20033;-80
2024/03/14 07:48:53;;;;;;;10.32;3.33;;;11.30;93.80;;;;;;5023533;28;20855;-80
2024/03/14 07:51:20;;;;;;;8.85;3.95;;;;;;;;;;5021125;28;20036;-78
2024/03/14 07:53:49;;;;;;;6.25;3.03;;;;;;;;;;5028160;28;20029;-79
2024/03/14 07:56:17;;;;;;;4.97;2.65;;;;;;;;;;5029677;28;20408;-79
2024/03/14 07:58:43;;;;;;;6.63;2.80;;;;;;;;;;5030155;28;20670;-77
2024/03/14 08:01:09;;;;;;;8.65;4.40;;;;;;;;;;5028117;28;20048;-78
2024/03/14 08:03:39;;;;;;;5.88;3.50;;;13.90;83.10;;;;;;5029495;28;20041;-79
2024/03/14 08:06:07;;;;;;;6.97;4.55;;;15.00;83.80;;;;;;5028365;28;20048;-78
2024/03/14 08:08:34;;;;;;;8.15;3.10;;;;;;;;;;5028767;28;20096;-78
2024/03/14 08:11:01;;;;;;;5.68;4.05;;;;;;;;;;5027824;28;20543;-78
2024/03/14 08:13:28;;;;;;;5.53;3.30;;;;;;;;;;5030967;28;20052;-79
2024/03/14 08:15:54;;;;;;;5.95;3.05;;;;;;;;;;5028006;28;20504;-80
2024/03/14 08:18:23;;;;;;;9.57;4.22;;;;;;;;;;5042397;28;20024;-79
2024/03/14 08:20:50;;;;;;;7.40;4.45;;;22.20;67.70;;;;;;5035850;28;20041;-78
2024/03/14 08:23:16;;;;;;;9.10;5.40;;;;;;;;;;5045759;28;20017;-79
2024/03/14 08:25:46;;;;;;;10.15;5.45;;;23.40;50.70;;;;;;5036222;28;20033;-80
2024/03/14 08:28:11;;;;;;;12.10;5.13;;;25.10;61.40;;;;;;5034241;28;20143;-80
2024/03/14 08:30:39;;;;;;;11.15;5.20;;;;;;;;;;5036239;28;20112;-77
2024/03/14 08:33:07;;;;;;;11.90;6.20;;;30.50;44.80;;;;;;5042519;28;20588;-78
2024/03/14 08:35:33;;;;;;;10.90;6.18;;;;;;;;;;5037047;28;20080;-81
2024/03/14 08:37:58;;;;;;;6.03;4.20;;;36.70;47.30;;;;;;5040435;28;20100;-83
2024/03/14 08:40:24;;;;;;;8.40;4.93;;;;;;;;;;5034297;28;20582;-83
2024/03/14 08:42:52;;;;;;;8.70;4.80;;;;;;;;;;5038111;28;20439;-84
2024/03/14 08:45:18;;;;;;;6.88;3.95;;;43.20;40.40;;;;;;5027471;28;20038;-79
2024/03/14 08:47:44;;;;;;;8.83;4.67;;;;;;;;;;5038959;28;20036;-82
2024/03/14 08:50:10;;;;;;;7.78;4.28;;;46.00;37.40;;;;;;5035186;28;20026;-82
2024/03/14 08:52:37;;;;;;;5.78;4.05;;;46.60;35.90;;;;;;5046183;28;20033;-81
2024/03/14 08:55:23;;;;;;;5.13;3.33;;;47.30;31.20;;;;;;5044906;28;20040;-81
2024/03/14 08:57:51;;;;;;;;;;;47.60;29.30;;;;;;5028884;28;20079;-82
2024/03/14 09:00:21;;;;;;;7.53;3.78;;;43.30;28.90;;;;;;5028393;28;19924;-81
2024/03/14 09:02:51;;;;;;;4.15;2.75;;;41.10;29.90;;;;;;5030642;28;20099;-82
2024/03/14 09:05:17;;;;;;;6.07;3.13;;;;;;;;;;5032152;28;20022;-80
2024/03/14 09:07:45;;;;;;;;;;;36.80;31.00;;;;;;5031891;28;20029;-81
2024/03/14 09:10:23;;;;;;;8.50;3.65;;;;;;;;;;5032194;28;20399;-81
2024/03/14 09:12:49;;;;;;;5.18;3.40;;;31.00;36.30;;;;;;5031758;28;20033;-81
2024/03/14 09:15:15;;;;;;;5.93;3.80;;;;;;;;;;5030874;28;20025;-81
2024/03/14 09:17:41;;;;;;;6.50;3.70;;;27.40;48.80;;;;;;5031315;28;20766;-81
2024/03/14 09:20:14;;;;;;;8.50;3.93;;;28.20;48.40;;;;;;5030860;28;20029;-80
2024/03/14 09:22:44;;;;;;;7.32;4.28;;;29.40;47.60;;;;;;5030932;28;20490;-80
2024/03/14 09:25:12;;;;;;;7.47;4.05;;;30.80;35.10;;;;;;5030164;28;20022;-81
2024/03/14 09:27:44;;;;;;;9.55;3.60;;;33.90;33.90;;;;;;5030801;28;20045;-81
2024/03/14 09:30:09;;;;;;;5.90;3.05;;;37.90;40.10;;;;;;5030600;28;20040;-82
2024/03/14 09:32:42;;;;;;;5.70;2.73;;;41.80;29.60;;;;;;5030972;28;20025;-81
2024/03/14 09:35:12;;;;;;;3.88;2.28;;;44.70;28.30;;;;;;5030461;28;20117;-82
2024/03/14 09:37:38;;;;;;;2.50;1.40;;;;;;;;;;5029885;28;20049;-81
2024/03/14 09:40:12;;;;;;;5.18;1.60;;;47.30;27.00;;;;;;5030238;28;20084;-82
2024/03/14 09:42:39;;;;;;;4.95;1.30;;;;;;;;;;5031218;28;20028;-81
2024/03/14 09:45:04;;;;;;;;;;;48.10;26.40;;;;;;5033379;28;20112;-82
2024/03/14 09:47:37;;;;;;;4.10;1.20;;;49.00;26.30;;;;;;5035769;28;20000;-81
2024/03/14 09:50:05;;;;;;;4.68;0.98;;;49.60;25.90;;;;;;5049873;28;20159;-83
2024/03/14 09:52:35;;;;;;;1.17;0.50;;;49.60;30.40;;;;;;5016295;28;20029;-81
2024/03/14 09:55:02;;;;;;;3.95;0.55;;;50.00;30.00;;;;;;5029886;28;20488;-81
2024/03/14 09:57:31;;;;;;;1.02;0.47;;;50.10;26.90;;;;;;5025689;28;20504;-82
2024/03/14 09:59:57;;;;;;;2.53;0.93;;;49.50;29.80;;;;;;5024511;28;20025;-82
2024/03/14 10:02:26;;;;;;;1.23;0.47;;;49.90;24.70;;;;;;5030816;28;20029;-81
2024/03/14 10:04:52;;;;;;;2.55;0.45;;;;;;;;;;5029941;28;20056;-82
2024/03/14 10:07:19;;;;;;;5.10;1.15;;;;;;;;;;5030341;28;20040;-82
2024/03/14 10:09:44;;;;;;;2.53;0.75;;;50.40;29.50;;;;;;5030656;28;20109;-82
2024/03/14 10:12:12;;;;;;;0.68;0.45;;;;;;;;;;5029972;28;20120;-82
2024/03/14 10:14:38;;;;;;;0.45;0.40;;;;;;;;;;5028257;28;20518;-83
2024/03/14 10:17:05;;;;;;;1.48;0.70;;;;;;;;;;5029619;28;20029;-82
2024/03/14 10:19:32;;;;;;;0.75;0.47;;;50.40;28.20;;;;;;5029094;28;20029;-82
2024/03/14 10:22:01;;;;;;;2.55;0.63;;;;;;;;;;5029376;28;20041;-82
2024/03/14 10:24:27;;;;;;;2.58;1.00;;;;;;;;;;5029231;28;20108;-81
2024/03/14 10:26:55;;;;;;;2.30;0.73;;;48.90;23.80;;;;;;5029276;28;20029;-82
2024/03/14 10:29:22;;;;;;;2.15;0.65;;;47.70;27.50;;;;;;5039779;28;20102;-82
2024/03/14 10:31:49;;;;;;;2.65;0.65;;;;;;;;;;5042358;28;20037;-82
2024/03/14 10:34:15;;;;;;;1.55;0.60;;;;;;;;;;5041219;28;20021;-82
2024/03/14 10:36:43;;;;;;;3.47;1.05;;;47.40;23.50;;;;;;5042098;28;20029;-81
2024/03/14 10:39:18;;;;;;;4.45;0.57;;;46.30;23.50;;;;;;5041587;28;20533;-82
2024/03/14 10:41:47;;;;;;;2.50;0.57;;;45.70;23.50;;;;;;5040510;28;20144;-81
2024/03/14 10:44:15;;;;;;;3.42;1.25;;;45.30;23.70;;;;;;5034580;28;20027;-81
2024/03/14 10:46:51;;;;;;;4.22;0.57;;;46.20;23.90;;;;;;5048622;28;20424;-82
2024/03/14 10:49:22;;;;;;;1.35;0.45;;;47.30;23.80;;;;;;5047822;28;20020;-79
2024/03/14 10:51:54;;;;;;;4.38;1.10;;;47.10;23.20;;;;;;5047851;28;20468;-80
2024/03/14 10:54:22;;;;;;;3.35;0.73;;;;;;;;;;5048460;28;20021;-81
2024/03/14 10:56:49;;;;;;;1.70;0.60;;;47.30;23.20;;;;;;5048050;28;20013;-81
2024/03/14 10:59:20;;;;;;;5.60;0.65;;;;;;;;;;5048316;28;20091;-81
2024/03/14 11:01:54;;;;;;;1.65;0.57;;;46.60;28.50;;;;;;5048121;28;20033;-81
2024/03/14 11:04:20;;;;;;;3.97;0.57;;;46.90;23.40;;;;;;5047698;28;20025;-82
2024/03/14 11:06:51;;;;;;;1.92;0.80;;;47.10;23.30;;;;;;5047465;28;20107;-80
2024/03/14 11:09:25;;;;;;;2.80;1.08;;;46.10;23.20;;;;;;5047942;28;20044;-82
2024/03/14 11:11:55;;;;;;;2.97;0.95;;;47.30;23.40;;;;;;5035138;28;20047;-81
2024/03/14 11:14:37;;;;;;;1.48;0.60;;;47.90;24.20;;;;;;5047471;28;20035;-81
2024/03/14 11:17:03;;;;;;;2.58;0.65;;;46.10;24.90;;;;;;5046656;28;20029;-81
2024/03/14 11:19:30;;;;;;;3.47;0.75;;;45.20;23.40;;;;;;5034682;28;20028;-81
2024/03/14 11:21:57;;;;;;;2.30;0.50;;;44.70;24.90;;;;;;5044473;28;20041;-82
2024/03/14 11:24:29;;;;;;;1.85;0.57;;;44.90;23.50;;;;;;5046399;28;20029;-81
2024/03/14 11:26:58;;;;;;;1.25;0.70;;;45.10;23.50;;;;;;5047800;28;20079;-82
2024/03/14 11:29:24;;;;;;;1.23;0.68;;;45.10;23.40;;;;;;5046648;28;20388;-81
2024/03/14 11:32:10;;;;;;;;;;;45.10;23.80;;;;;;5048362;28;20021;-81
2024/03/14 11:34:37;;;;;;;2.83;0.85;;;;;;;;;;5047595;28;20409;-81
2024/03/14 11:37:03;;;;;;;2.03;0.70;;;;;;;;;;5047937;28;20021;-80
2024/03/14 11:39:30;;;;;;;1.55;0.40;;;;;;;;;;5047779;28;20028;-81
2024/03/14 11:42:06;;;;;;;3.00;0.52;;;41.20;23.80;;;;;;5047622;28;20051;-81
2024/03/14 11:44:32;;;;;;;3.17;0.40;;;;;;;;;;5027989;28;20025;-81
2024/03/14 11:46:59;;;;;;;0.93;0.57;;;;;;;;;;5028388;28;20087;-81
2024/03/14 11:49:28;;;;;;;2.00;0.50;;;;;;;;;;5035454;28;20016;-79
2024/03/14 11:51:55;;;;;;;3.45;1.00;;;35.30;26.10;;;;;;5046556;28;20483;-81
2024/03/14 11:54:21;;;;;;;;;;;35.30;26.60;;;;;;5039486;28;20040;-81
2024/03/14 11:56:50;;;;;;;1.13;0.70;;;32.60;27.80;;;;;;5027762;28;20295;-81
2024/03/14 11:59:20;;;;;;;1.63;0.70;;;;;;;;;;5036308;28;20048;-80
2024/03/14 12:01:46;;;;;;;3.47;1.00;;;30.20;42.30;;;;;;5047075;28;20029;-81
2024/03/14 12:04:13;;;;;;;2.78;0.65;;;;;;;;;;5047119;28;20372;-80
2024/03/14 12:06:40;;;;;;;;;;;29.50;30.20;;;;;;5046948;28;20045;-79
2024/03/14 12:09:06;;;;;;;2.08;1.08;;;28.50;37.00;;;;;;5047631;28;19908;-80
2024/03/14 12:11:33;;;;;;;2.58;1.10;;;28.30;32.20;;;;;;5046056;28;20024;-80
2024/03/14 12:13:59;;;;;;;1.30;0.50;;;28.40;42.70;;;;;;5040999;28;20411;-81
2024/03/14 12:16:25;;;;;;;5.10;1.17;;;;;;;;;;5043042;28;20050;-80
2024/03/14 12:18:57;;;;;;;3.88;0.70;;;;;;;;;;5046267;28;20025;-80
2024/03/14 12:21:24;;;;;;;2.42;1.13;;;;;;;;;;5045872;28;20041;-81
2024/03/14 12:23:54;;;;;;;7.97;0.70;;;27.90;33.50;;;;;;5047074;28;20040;-80
2024/03/14 12:26:21;;;;;;;1.85;0.93;;;;;;;;;;5045567;28;20025;-80
2024/03/14 12:28:48;;;;;;;0.98;0.52;;;27.50;34.20;;;;;;5045955;28;20542;-79
2024/03/14 12:31:14;;;;;;;1.52;0.63;;;;;;;;;;5045300;28;20178;-81
2024/03/14 12:33:44;;;;;;;0.90;0.70;;;26.90;35.10;;;;;;5046171;28;20021;-80
2024/03/14 12:36:16;;;;;;;2.55;0.90;;;;;;;;;;5045326;28;20267;-80
2024/03/14 12:38:49;;;;;;;5.18;1.13;;;26.80;35.90;;;;;;5050109;28;20484;-80
2024/03/14 12:41:15;;;;;;;1.42;0.90;;;;;;;;;;5038376;28;20029;-80
2024/03/14 12:43:41;;;;;;;5.43;1.25;;;;;;;;;;5037082;28;20028;-80
2024/03/14 12:46:10;;;;;;;1.80;0.98;;;26.40;36.60;;;;;;5031483;28;20023;-80
2024/03/14 12:48:36;;;;;;;4.82;1.27;;;26.40;36.80;;;;;;5030939;28;20025;-80
2024/03/14 12:51:19;;;;;;;6.00;1.93;;;26.60;36.80;;;;;;5031123;28;20025;-80
2024/03/14 12:53:58;;;;;;;3.70;1.67;;;26.70;36.70;;;;;;5031341;28;20401;-80
2024/03/14 12:56:24;;;;;;;2.85;1.15;;;26.60;36.80;;;;;;5031254;28;20617;-80
2024/03/14 12:58:51;;;;;;;2.63;1.08;;;26.50;37.80;;;;;;5030938;28;20033;-80
2024/03/14 13:01:17;;;;;;;2.38;1.35;;;;;;;;;;5030955;28;20053;-80
2024/03/14 13:03:43;;;;;;;2.75;1.38;;;;;;;;;;5031029;28;20475;-81
2024/03/14 13:06:23;;;;;;;3.22;1.48;;;25.90;38.20;;;;;;5030069;28;20024;-79
2024/03/14 13:08:49;;;;;;;1.80;1.30;;;;;;;;;;5019271;28;20032;-79
2024/03/14 13:11:15;;;;;;;2.25;1.45;;;;;;;;;;5030936;28;20551;-80
2024/03/14 13:13:42;;;;;;;2.13;1.20;;;;;;;;;;5030854;28;20021;-80
2024/03/14 13:16:18;;;;;;;3.17;1.83;;;25.60;38.60;;;;;;5039552;28;20080;-81
2024/03/14 13:18:46;;;;;;;8.57;1.37;;;;;;;;;;5041034;28;20381;-81
2024/03/14 13:21:12;;;;;;;2.97;1.42;;;;;;;;;;5043587;28;20349;-80
2024/03/14 13:23:41;;;;;;;3.25;1.70;;;25.10;38.70;;;;;;5025861;28;20022;-80
2024/03/14 13:26:10;;;;;;;5.00;1.73;;;;;;;;;;5026461;28;20057;-80
2024/03/14 13:28:37;;;;;;;1.02;0.73;;;;;;;;;;5030165;28;20137;-81
2024/03/14 13:31:03;;;;;;;0.40;0.35;;;;;;;;;;5031330;28;20056;-80
2024/03/14 13:33:29;;;;;;;3.40;0.67;;;;;;;;;;5031404;28;20107;-80
2024/03/14 13:35:56;;;;;;;0.85;0.45;;;;;;;;;;5031512;28;20061;-80
2024/03/14 13:38:25;;;;;;;0.52;0.47;;;;;;;;;;5031024;28;20431;-81
2024/03/14 13:40:51;;;;;;;0.80;0.63;;;;;;;;;;5032062;28;20044;-80
2024/03/14 13:43:18;;;;;;;0.88;0.50;;;;;;;;;;5030999;28;20026;-81
2024/03/14 13:45:45;;;;;;;0.52;0.40;;;;;;;;;;5046735;28;20124;-81
2024/03/14 13:48:11;;;;;;;0.37;0.23;;;;;;;;;;5049922;28;20108;-81
2024/03/14 13:50:40;;;;;;;1.55;0.63;;;24.90;46.70;;;;;;5040972;28;20050;-80
2024/03/14 13:53:06;;;;;;;2.65;0.70;;;;;;;;;;5021477;28;20120;-81
2024/03/14 13:55:40;;;;;;;1.80;0.65;;;;;;;;;;5030809;28;20045;-81
2024/03/14 13:58:06;;;;;;;1.23;0.52;;;;;;;;;;5030679;28;20033;-80
2024/03/14 14:00:45;;;;;;;1.77;1.00;;;;;;;;;;5031534;28;20122;-80
2024/03/14 14:03:13;;;;;;;1.08;0.77;;;24.10;36.60;;;;;;5031734;28;20056;-81